createdAt,value
2022-10-11T00:00:55.769Z,1017.52
2022-10-11T00:01:55.908Z,1017.49
2022-10-11T00:02:56.086Z,1017.44
2022-10-11T00:03:56.207Z,1017.51
2022-10-11T00:04:56.299Z,1017.46
2022-10-11T00:05:56.449Z,1017.46
2022-10-11T00:06:57.282Z,1017.50
2022-10-11T00:07:56.666Z,1017.54
2022-10-11T00:08:57.297Z,1017.51
2022-10-11T00:09:56.920Z,1017.50
2022-10-11T00:10:57.062Z,1017.59
2022-10-11T00:11:57.217Z,1017.60
2022-10-11T00:12:57.377Z,1017.54
2022-10-11T00:13:57.607Z,1017.55
2022-10-11T00:14:57.799Z,1017.56
2022-10-11T00:15:57.826Z,1017.57
2022-10-11T00:16:57.967Z,1017.57
2022-10-11T00:18:01.031Z,1017.60
2022-10-11T00:19:00.708Z,1017.54
2022-10-11T00:19:58.436Z,1017.62
2022-10-11T00:20:58.567Z,1017.57
2022-10-11T00:21:58.708Z,1017.58
2022-10-11T00:22:58.877Z,1017.60
2022-10-11T00:23:59.016Z,1017.62
2022-10-11T00:24:59.146Z,1017.58
2022-10-11T00:25:59.316Z,1017.61
2022-10-11T00:26:59.506Z,1017.61
2022-10-11T00:27:59.623Z,1017.65
2022-10-11T00:28:59.772Z,1017.63
2022-10-11T00:29:59.925Z,1017.61
2022-10-11T00:31:00.058Z,1017.65
2022-10-11T00:32:00.200Z,1017.67
2022-10-11T00:33:00.363Z,1017.69
2022-10-11T00:34:00.553Z,1017.69
2022-10-11T00:35:00.686Z,1017.71
2022-10-11T00:36:00.840Z,1017.73
2022-10-11T00:37:00.994Z,1017.68
2022-10-11T00:38:01.117Z,1017.72
2022-10-11T00:39:01.246Z,1017.73
2022-10-11T00:40:01.354Z,1017.74
2022-10-11T00:41:01.494Z,1017.72
2022-10-11T00:42:01.632Z,1017.63
2022-10-11T00:43:01.781Z,1017.72
2022-10-11T00:44:01.902Z,1017.69
2022-10-11T00:45:02.023Z,1017.70
2022-10-11T00:46:02.504Z,1017.67
2022-10-11T00:47:02.454Z,1017.72
2022-10-11T00:48:02.446Z,1017.71
2022-10-11T00:49:02.575Z,1017.70
2022-10-11T00:50:02.702Z,1017.66
2022-10-11T00:51:03.223Z,1017.68
2022-10-11T00:52:03.021Z,1017.70
2022-10-11T00:53:03.205Z,1017.69
2022-10-11T00:54:03.290Z,1017.74
2022-10-11T00:55:03.490Z,1017.77
2022-10-11T00:56:04.089Z,1017.74
2022-10-11T00:57:03.731Z,1017.72
2022-10-11T00:58:03.882Z,1017.74
2022-10-11T00:59:04.010Z,1017.80
2022-10-11T01:00:04.132Z,1017.75
2022-10-11T01:01:04.304Z,1017.73
2022-10-11T01:02:04.422Z,1017.78
2022-10-11T01:03:04.578Z,1017.78
2022-10-11T01:04:04.731Z,1017.80
2022-10-11T01:05:27.748Z,1017.81
2022-10-11T01:06:06.408Z,1017.80
2022-10-11T01:07:05.138Z,1017.81
2022-10-11T01:08:05.301Z,1017.78
2022-10-11T01:09:05.461Z,1017.81
2022-10-11T01:10:05.539Z,1017.82
2022-10-11T01:11:05.687Z,1017.87
2022-10-11T01:12:05.848Z,1017.79
2022-10-11T01:13:06.008Z,1017.84
2022-10-11T01:14:06.149Z,1017.91
2022-10-11T01:15:06.308Z,1017.83
2022-10-11T01:16:07.055Z,1017.95
2022-10-11T01:17:06.616Z,1017.89
2022-10-11T01:18:06.749Z,1017.91
2022-10-11T01:19:06.908Z,1017.98
2022-10-11T01:20:07.036Z,1017.89
2022-10-11T01:21:07.168Z,1017.94
2022-10-11T01:22:07.314Z,1017.93
2022-10-11T01:23:07.491Z,1017.95
2022-10-11T01:24:08.857Z,1017.95
2022-10-11T01:25:07.789Z,1017.91
2022-10-11T01:26:08.282Z,1017.88
2022-10-11T01:27:08.458Z,1017.90
2022-10-11T01:28:08.363Z,1017.93
2022-10-11T01:29:08.484Z,1017.94
2022-10-11T01:30:08.558Z,1017.87
2022-10-11T01:31:08.815Z,1017.97
2022-10-11T01:32:08.833Z,1017.99
2022-10-11T01:33:08.967Z,1017.98
2022-10-11T01:34:09.120Z,1017.97
2022-10-11T01:35:09.268Z,1018.02
2022-10-11T01:36:09.393Z,1017.99
2022-10-11T01:37:09.546Z,1018.07
2022-10-11T01:38:09.688Z,1018.10
2022-10-11T01:39:09.850Z,1018.02
2022-10-11T01:40:09.997Z,1018.05
2022-10-11T01:41:10.094Z,1018.06
2022-10-11T01:42:10.963Z,1018.08
2022-10-11T01:43:10.415Z,1018.11
2022-10-11T01:44:10.575Z,1018.08
2022-10-11T01:45:10.729Z,1018.06
2022-10-11T01:46:10.886Z,1018.05
2022-10-11T01:47:11.035Z,1018.07
2022-10-11T01:48:11.176Z,1018.09
2022-10-11T01:49:11.344Z,1018.19
2022-10-11T01:50:11.503Z,1018.18
2022-10-11T01:51:11.643Z,1018.17
2022-10-11T01:52:11.787Z,1018.16
2022-10-11T01:53:11.944Z,1018.18
2022-10-11T01:54:12.151Z,1018.14
2022-10-11T01:55:12.223Z,1018.16
2022-10-11T01:56:12.373Z,1018.15
2022-10-11T01:57:12.513Z,1018.19
2022-10-11T01:58:12.640Z,1018.21
2022-10-11T01:59:12.783Z,1018.17
2022-10-11T02:00:12.946Z,1018.15
2022-10-11T02:01:13.117Z,1018.16
2022-10-11T02:02:13.208Z,1018.13
2022-10-11T02:03:13.313Z,1018.13
2022-10-11T02:04:13.494Z,1018.16
2022-10-11T02:05:13.641Z,1018.13
2022-10-11T02:06:13.748Z,1018.14
2022-10-11T02:07:13.879Z,1018.17
2022-10-11T02:08:14.010Z,1018.21
2022-10-11T02:09:14.142Z,1018.17
2022-10-11T02:10:14.268Z,1018.23
2022-10-11T02:11:14.417Z,1018.23
2022-10-11T02:12:14.544Z,1018.22
2022-10-11T02:13:14.673Z,1018.25
2022-10-11T02:14:14.828Z,1018.26
2022-10-11T02:15:14.969Z,1018.22
2022-10-11T02:16:15.090Z,1018.28
2022-10-11T02:17:15.202Z,1018.28
2022-10-11T02:18:15.319Z,1018.28
2022-10-11T02:19:15.459Z,1018.26
2022-10-11T02:20:15.619Z,1018.27
2022-10-11T02:21:15.797Z,1018.24
2022-10-11T02:22:15.978Z,1018.26
2022-10-11T02:23:16.100Z,1018.29
2022-10-11T02:24:16.225Z,1018.28
2022-10-11T02:25:16.338Z,1018.26
2022-10-11T02:26:16.480Z,1018.29
2022-10-11T02:27:16.627Z,1018.23
2022-10-11T02:28:16.790Z,1018.23
2022-10-11T02:29:16.858Z,1018.23
2022-10-11T02:30:17.002Z,1018.24
2022-10-11T02:31:17.136Z,1018.27
2022-10-11T02:32:17.255Z,1018.21
2022-10-11T02:33:17.378Z,1018.30
2022-10-11T02:34:18.235Z,1018.24
2022-10-11T02:35:17.688Z,1018.25
2022-10-11T02:36:17.846Z,1018.27
2022-10-11T02:37:17.994Z,1018.29
2022-10-11T02:38:18.118Z,1018.31
2022-10-11T02:39:18.237Z,1018.27
2022-10-11T02:40:18.367Z,1018.28
2022-10-11T02:41:18.517Z,1018.30
2022-10-11T02:42:18.657Z,1018.32
2022-10-11T02:43:18.799Z,1018.32
2022-10-11T02:44:18.917Z,1018.34
2022-10-11T02:45:19.043Z,1018.32
2022-10-11T02:46:19.219Z,1018.34
2022-10-11T02:47:19.365Z,1018.31
2022-10-11T02:48:19.540Z,1018.31
2022-10-11T02:49:19.654Z,1018.32
2022-10-11T02:50:19.777Z,1018.30
2022-10-11T02:51:19.905Z,1018.31
2022-10-11T02:52:20.056Z,1018.31
2022-10-11T02:53:20.186Z,1018.30
2022-10-11T02:54:20.318Z,1018.33
2022-10-11T02:55:20.464Z,1018.32
2022-10-11T02:56:20.611Z,1018.34
2022-10-11T02:57:20.734Z,1018.29
2022-10-11T02:58:20.865Z,1018.31
2022-10-11T02:59:20.972Z,1018.22
2022-10-11T03:00:21.100Z,1018.27
2022-10-11T03:01:21.259Z,1018.31
2022-10-11T03:02:21.334Z,1018.36
2022-10-11T03:03:21.441Z,1018.41
2022-10-11T03:04:21.574Z,1018.32
2022-10-11T03:05:21.704Z,1018.39
2022-10-11T03:06:21.841Z,1018.39
2022-10-11T03:07:21.973Z,1018.35
2022-10-11T03:08:22.105Z,1018.38
2022-10-11T03:09:22.223Z,1018.40
2022-10-11T03:10:22.581Z,1018.42
2022-10-11T03:11:22.513Z,1018.44
2022-10-11T03:12:22.643Z,1018.39
2022-10-11T03:13:22.812Z,1018.40
2022-10-11T03:14:22.982Z,1018.43
2022-10-11T03:15:23.090Z,1018.44
2022-10-11T03:16:23.263Z,1018.48
2022-10-11T03:17:36.194Z,1018.48
2022-10-11T03:18:24.491Z,1018.47
2022-10-11T03:19:23.621Z,1018.51
2022-10-11T03:20:23.791Z,1018.46
2022-10-11T03:21:24.098Z,1018.52
2022-10-11T03:22:24.069Z,1018.55
2022-10-11T03:23:24.221Z,1018.60
2022-10-11T03:24:24.358Z,1018.59
2022-10-11T03:25:24.499Z,1018.60
2022-10-11T03:26:24.640Z,1018.63
2022-10-11T03:27:24.761Z,1018.63
2022-10-11T03:28:24.925Z,1018.56
2022-10-11T03:29:25.039Z,1018.60
2022-10-11T03:30:25.182Z,1018.61
2022-10-11T03:31:25.345Z,1018.68
2022-10-11T03:32:25.487Z,1018.67
2022-10-11T03:33:25.598Z,1018.66
2022-10-11T03:34:25.717Z,1018.66
2022-10-11T03:35:25.839Z,1018.62
2022-10-11T03:36:25.964Z,1018.71
2022-10-11T03:37:26.078Z,1018.74
2022-10-11T03:38:26.218Z,1018.77
2022-10-11T03:39:26.357Z,1018.84
2022-10-11T03:40:26.488Z,1018.83
2022-10-11T03:41:26.616Z,1018.82
2022-10-11T03:42:26.744Z,1018.79
2022-10-11T03:43:26.859Z,1018.77
2022-10-11T03:44:26.977Z,1018.80
2022-10-11T03:45:27.090Z,1018.78
2022-10-11T03:46:27.239Z,1018.79
2022-10-11T03:47:27.366Z,1018.80
2022-10-11T03:48:27.486Z,1018.77
2022-10-11T03:49:27.597Z,1018.82
2022-10-11T03:50:27.735Z,1018.80
2022-10-11T03:51:27.878Z,1018.74
2022-10-11T03:52:28.008Z,1018.83
2022-10-11T03:53:28.125Z,1018.83
2022-10-11T03:54:28.268Z,1018.84
2022-10-11T03:55:28.408Z,1018.88
2022-10-11T03:56:28.521Z,1018.91
2022-10-11T03:57:28.638Z,1018.89
2022-10-11T03:58:28.767Z,1018.91
2022-10-11T03:59:28.892Z,1018.91
2022-10-11T04:00:29.009Z,1018.93
2022-10-11T04:01:29.165Z,1018.87
2022-10-11T04:02:29.295Z,1018.94
2022-10-11T04:03:29.418Z,1018.91
2022-10-11T04:04:29.536Z,1018.92
2022-10-11T04:05:29.655Z,1018.89
2022-10-11T04:06:29.784Z,1018.95
2022-10-11T04:07:29.933Z,1018.97
2022-10-11T04:08:30.055Z,1018.92
2022-10-11T04:09:30.163Z,1018.93
2022-10-11T04:10:30.325Z,1018.93
2022-10-11T04:11:30.447Z,1018.94
2022-10-11T04:12:30.571Z,1018.94
2022-10-11T04:13:30.695Z,1019.01
2022-10-11T04:14:30.825Z,1018.96
2022-10-11T04:15:30.954Z,1019.01
2022-10-11T04:16:31.072Z,1019.01
2022-10-11T04:17:31.184Z,1019.00
2022-10-11T04:18:31.314Z,1019.02
2022-10-11T04:19:31.434Z,1018.99
2022-10-11T04:20:31.602Z,1019.05
2022-10-11T04:21:31.660Z,1019.06
2022-10-11T04:22:33.304Z,1019.11
2022-10-11T04:23:32.022Z,1019.13
2022-10-11T04:24:32.183Z,1019.14
2022-10-11T04:25:32.322Z,1019.12
2022-10-11T04:26:32.480Z,1019.15
2022-10-11T04:27:32.623Z,1019.23
2022-10-11T04:28:32.791Z,1019.15
2022-10-11T04:29:33.058Z,1019.21
2022-10-11T04:30:32.969Z,1019.18
2022-10-11T04:31:33.099Z,1019.26
2022-10-11T04:32:33.223Z,1019.25
2022-10-11T04:33:33.331Z,1019.27
2022-10-11T04:34:33.450Z,1019.27
2022-10-11T04:35:33.569Z,1019.26
2022-10-11T04:36:33.713Z,1019.28
2022-10-11T04:37:33.869Z,1019.23
2022-10-11T04:38:34.031Z,1019.22
2022-10-11T04:39:34.140Z,1019.25
2022-10-11T04:40:34.269Z,1019.26
2022-10-11T04:41:34.381Z,1019.21
2022-10-11T04:42:34.516Z,1019.23
2022-10-11T04:43:34.656Z,1019.24
2022-10-11T04:44:34.790Z,1019.36
2022-10-11T04:45:34.899Z,1019.30
2022-10-11T04:46:35.024Z,1019.30
2022-10-11T04:47:35.166Z,1019.31
2022-10-11T04:48:35.267Z,1019.37
2022-10-11T04:49:35.378Z,1019.32
2022-10-11T04:50:35.506Z,1019.35
2022-10-11T04:51:35.625Z,1019.37
2022-10-11T04:52:35.770Z,1019.35
2022-10-11T04:53:35.907Z,1019.38
2022-10-11T04:54:36.037Z,1019.39
2022-10-11T04:55:36.145Z,1019.34
2022-10-11T04:56:36.266Z,1019.42
2022-10-11T04:57:36.407Z,1019.40
2022-10-11T04:58:37.295Z,1019.42
2022-10-11T04:59:36.654Z,1019.42
2022-10-11T05:00:36.774Z,1019.43
2022-10-11T05:01:36.921Z,1019.42
2022-10-11T05:02:37.074Z,1019.49
2022-10-11T05:03:37.196Z,1019.48
2022-10-11T05:04:37.346Z,1019.45
2022-10-11T05:05:37.493Z,1019.43
2022-10-11T05:06:37.644Z,1019.48
2022-10-11T05:07:37.798Z,1019.47
2022-10-11T05:08:37.942Z,1019.47
2022-10-11T05:09:38.063Z,1019.43
2022-10-11T05:10:38.255Z,1019.44
2022-10-11T05:11:38.397Z,1019.46
2022-10-11T05:12:38.522Z,1019.48
2022-10-11T05:13:38.666Z,1019.50
2022-10-11T05:14:38.804Z,1019.46
2022-10-11T05:15:38.954Z,1019.46
2022-10-11T05:16:39.092Z,1019.48
2022-10-11T05:17:39.251Z,1019.54
2022-10-11T05:18:39.413Z,1019.48
2022-10-11T05:19:39.574Z,1019.51
2022-10-11T05:20:39.719Z,1019.47
2022-10-11T05:21:39.845Z,1019.53
2022-10-11T05:22:39.994Z,1019.58
2022-10-11T05:23:40.121Z,1019.52
2022-10-11T05:24:40.502Z,1019.55
2022-10-11T05:25:40.352Z,1019.60
2022-10-11T05:26:40.491Z,1019.54
2022-10-11T05:27:40.633Z,1019.59
2022-10-11T05:28:40.852Z,1019.58
2022-10-11T05:29:40.942Z,1019.56
2022-10-11T05:30:41.072Z,1019.62
2022-10-11T05:31:41.194Z,1019.57
2022-10-11T05:32:41.330Z,1019.59
2022-10-11T05:33:41.483Z,1019.53
2022-10-11T05:34:41.609Z,1019.54
2022-10-11T05:35:41.761Z,1019.58
2022-10-11T05:36:41.895Z,1019.53
2022-10-11T05:37:42.042Z,1019.56
2022-10-11T05:38:42.201Z,1019.57
2022-10-11T05:39:42.339Z,1019.53
2022-10-11T05:40:42.470Z,1019.59
2022-10-11T05:41:42.604Z,1019.59
2022-10-11T05:42:42.741Z,1019.61
2022-10-11T05:43:42.897Z,1019.60
2022-10-11T05:44:43.023Z,1019.60
2022-10-11T05:45:43.160Z,1019.67
2022-10-11T05:46:43.285Z,1019.65
2022-10-11T05:47:43.438Z,1019.62
2022-10-11T05:48:43.632Z,1019.65
2022-10-11T05:49:43.728Z,1019.67
2022-10-11T05:50:43.859Z,1019.68
2022-10-11T05:51:43.987Z,1019.70
2022-10-11T05:52:44.129Z,1019.70
2022-10-11T05:53:44.290Z,1019.70
2022-10-11T05:54:44.466Z,1019.74
2022-10-11T05:55:44.594Z,1019.71
2022-10-11T05:56:44.736Z,1019.76
2022-10-11T05:57:44.876Z,1019.71
2022-10-11T05:58:45.048Z,1019.75
2022-10-11T05:59:45.173Z,1019.75
2022-10-11T06:00:45.310Z,1019.78
2022-10-11T06:01:45.520Z,1019.83
2022-10-11T06:02:45.675Z,1019.82
2022-10-11T06:03:45.797Z,1019.83
2022-10-11T06:04:45.876Z,1019.79
2022-10-11T06:05:46.007Z,1019.78
2022-10-11T06:06:46.165Z,1019.80
2022-10-11T06:07:46.306Z,1019.83
2022-10-11T06:08:46.416Z,1019.82
2022-10-11T06:09:46.521Z,1019.87
2022-10-11T06:10:46.697Z,1019.92
2022-10-11T06:11:46.833Z,1019.94
2022-10-11T06:12:46.924Z,1020.01
2022-10-11T06:13:47.072Z,1020.01
2022-10-11T06:14:47.186Z,1020.04
2022-10-11T06:15:47.345Z,1020.04
2022-10-11T06:16:47.507Z,1020.09
2022-10-11T06:17:47.667Z,1019.93
2022-10-11T06:18:47.808Z,1019.99
2022-10-11T06:19:47.957Z,1020.00
2022-10-11T06:20:48.052Z,1020.00
2022-10-11T06:21:48.214Z,1019.95
2022-10-11T06:22:56.161Z,1020.05
2022-10-11T06:23:48.525Z,1020.10
2022-10-11T06:24:48.694Z,1020.07
2022-10-11T06:25:49.559Z,1020.08
2022-10-11T06:26:48.987Z,1020.07
2022-10-11T06:27:49.134Z,1020.08
2022-10-11T06:28:49.424Z,1020.14
2022-10-11T06:29:49.474Z,1020.10
2022-10-11T06:30:49.666Z,1020.05
2022-10-11T06:31:49.763Z,1020.12
2022-10-11T06:32:49.890Z,1020.11
2022-10-11T06:33:50.025Z,1020.13
2022-10-11T06:34:50.156Z,1020.10
2022-10-11T06:35:50.312Z,1020.12
2022-10-11T06:36:50.417Z,1020.15
2022-10-11T06:37:50.550Z,1020.20
2022-10-11T06:38:50.732Z,1020.22
2022-10-11T06:39:50.873Z,1020.28
2022-10-11T06:40:50.963Z,1020.21
2022-10-11T06:41:51.133Z,1020.24
2022-10-11T06:42:51.204Z,1020.19
2022-10-11T06:43:51.351Z,1020.27
2022-10-11T06:44:51.502Z,1020.27
2022-10-11T06:45:51.671Z,1020.27
2022-10-11T06:46:51.843Z,1020.23
2022-10-11T06:47:53.464Z,1020.24
2022-10-11T06:48:52.192Z,1020.32
2022-10-11T06:49:52.436Z,1020.25
2022-10-11T06:50:59.881Z,1020.25
2022-10-11T06:51:53.621Z,1020.26
2022-10-11T06:52:52.713Z,1020.31
2022-10-11T06:53:52.863Z,1020.35
2022-10-11T06:54:53.000Z,1020.38
2022-10-11T06:55:53.140Z,1020.38
2022-10-11T06:56:53.288Z,1020.42
2022-10-11T06:57:53.420Z,1020.44
2022-10-11T06:58:53.574Z,1020.38
2022-10-11T06:59:53.730Z,1020.45
2022-10-11T07:00:53.968Z,1020.43
2022-10-11T07:01:54.007Z,1020.40
2022-10-11T07:02:54.169Z,1020.38
2022-10-11T07:03:54.361Z,1020.39
2022-10-11T07:04:54.566Z,1020.38
2022-10-11T07:05:57.880Z,1020.46
2022-10-11T07:06:55.717Z,1020.48
2022-10-11T07:07:54.856Z,1020.43
2022-10-11T07:08:54.974Z,1020.48
2022-10-11T07:09:55.138Z,1020.47
2022-10-11T07:10:55.308Z,1020.44
2022-10-11T07:11:55.417Z,1020.42
2022-10-11T07:12:55.578Z,1020.48
2022-10-11T07:13:55.627Z,1020.47
2022-10-11T07:14:55.766Z,1020.46
2022-10-11T07:15:55.956Z,1020.55
2022-10-11T07:16:56.023Z,1020.53
2022-10-11T07:17:56.179Z,1020.61
2022-10-11T07:19:00.143Z,1020.59
2022-10-11T07:19:56.470Z,1020.57
2022-10-11T07:20:56.603Z,1020.64
2022-10-11T07:21:56.748Z,1020.64
2022-10-11T07:22:56.846Z,1020.65
2022-10-11T07:23:56.994Z,1020.65
2022-10-11T07:24:57.173Z,1020.70
2022-10-11T07:25:57.292Z,1020.69
2022-10-11T07:26:57.467Z,1020.66
2022-10-11T07:27:57.546Z,1020.67
2022-10-11T07:28:57.755Z,1020.65
2022-10-11T07:29:57.888Z,1020.65
2022-10-11T07:30:58.045Z,1020.68
2022-10-11T07:31:58.324Z,1020.67
2022-10-11T07:32:58.296Z,1020.68
2022-10-11T07:33:58.437Z,1020.65
2022-10-11T07:34:58.652Z,1020.73
2022-10-11T07:35:58.796Z,1020.68
2022-10-11T07:36:58.935Z,1020.72
2022-10-11T07:37:59.107Z,1020.72
2022-10-11T07:38:59.265Z,1020.69
2022-10-11T07:39:59.437Z,1020.66
2022-10-11T07:40:59.591Z,1020.73
2022-10-11T07:41:59.815Z,1020.68
2022-10-11T07:42:59.853Z,1020.73
2022-10-11T07:44:00.025Z,1020.68
2022-10-11T07:45:00.142Z,1020.67
2022-10-11T07:46:00.242Z,1020.70
2022-10-11T07:47:00.374Z,1020.67
2022-10-11T07:48:00.663Z,1020.69
2022-10-11T07:49:00.645Z,1020.70
2022-10-11T07:50:00.812Z,1020.67
2022-10-11T07:51:00.925Z,1020.71
2022-10-11T07:52:01.054Z,1020.67
2022-10-11T07:53:01.192Z,1020.70
2022-10-11T07:54:04.773Z,1020.65
2022-10-11T07:55:02.454Z,1020.71
2022-10-11T07:56:01.932Z,1020.72
2022-10-11T07:57:01.757Z,1020.67
2022-10-11T07:58:01.913Z,1020.72
2022-10-11T07:59:02.059Z,1020.76
2022-10-11T08:00:02.222Z,1020.78
2022-10-11T08:01:02.474Z,1020.70
2022-10-11T08:02:02.652Z,1020.75
2022-10-11T08:03:02.642Z,1020.72
2022-10-11T08:04:02.812Z,1020.77
2022-10-11T08:05:02.941Z,1020.74
2022-10-11T08:06:03.515Z,1020.68
2022-10-11T08:07:03.266Z,1020.74
2022-10-11T08:08:03.432Z,1020.74
2022-10-11T08:09:03.586Z,1020.72
2022-10-11T08:10:03.734Z,1020.74
2022-10-11T08:11:03.906Z,1020.69
2022-10-11T08:12:04.067Z,1020.75
2022-10-11T08:13:04.673Z,1020.76
2022-10-11T08:14:04.319Z,1020.76
2022-10-11T08:15:04.420Z,1020.72
2022-10-11T08:16:04.971Z,1020.71
2022-10-11T08:17:04.690Z,1020.70
2022-10-11T08:18:04.884Z,1020.70
2022-10-11T08:19:05.141Z,1020.74
2022-10-11T08:20:05.217Z,1020.75
2022-10-11T08:21:05.351Z,1020.76
2022-10-11T08:22:05.521Z,1020.69
2022-10-11T08:23:05.695Z,1020.76
2022-10-11T08:24:05.788Z,1020.78
2022-10-11T08:25:05.927Z,1020.74
2022-10-11T08:26:06.478Z,1020.64
2022-10-11T08:27:06.301Z,1020.72
2022-10-11T08:28:06.418Z,1020.72
2022-10-11T08:29:06.508Z,1020.77
2022-10-11T08:30:06.660Z,1020.74
2022-10-11T08:31:06.818Z,1020.78
2022-10-11T08:32:06.939Z,1020.78
2022-10-11T08:33:08.713Z,1020.78
2022-10-11T08:34:07.234Z,1020.72
2022-10-11T08:35:07.379Z,1020.74
2022-10-11T08:36:08.428Z,1020.77
2022-10-11T08:37:07.649Z,1020.72
2022-10-11T08:38:07.836Z,1020.78
2022-10-11T08:39:07.917Z,1020.77
2022-10-11T08:40:08.089Z,1020.79
2022-10-11T08:41:08.285Z,1020.80
2022-10-11T08:42:08.391Z,1020.83
2022-10-11T08:43:08.465Z,1020.86
2022-10-11T08:44:08.565Z,1020.85
2022-10-11T08:45:11.533Z,1020.89
2022-10-11T08:46:09.500Z,1020.88
2022-10-11T08:47:09.149Z,1020.80
2022-10-11T08:48:09.116Z,1020.83
2022-10-11T08:49:09.260Z,1020.79
2022-10-11T08:50:09.399Z,1020.84
2022-10-11T08:51:09.539Z,1020.87
2022-10-11T08:52:09.686Z,1020.81
2022-10-11T08:53:09.789Z,1020.87
2022-10-11T08:54:09.939Z,1020.83
2022-10-11T08:55:10.085Z,1020.85
2022-10-11T08:56:10.167Z,1020.86
2022-10-11T08:57:10.307Z,1020.79
2022-10-11T08:58:10.463Z,1020.82
2022-10-11T08:59:10.566Z,1020.75
2022-10-11T09:00:10.746Z,1020.78
2022-10-11T09:01:10.909Z,1020.82
2022-10-11T09:02:12.019Z,1020.78
2022-10-11T09:03:11.055Z,1020.83
2022-10-11T09:04:11.219Z,1020.80
2022-10-11T09:05:11.400Z,1020.84
2022-10-11T09:06:11.476Z,1020.84
2022-10-11T09:07:11.546Z,1020.78
2022-10-11T09:08:11.696Z,1020.80
2022-10-11T09:09:11.839Z,1020.83
2022-10-11T09:10:12.017Z,1020.82
2022-10-11T09:11:12.096Z,1020.77
2022-10-11T09:12:12.256Z,1020.81
2022-10-11T09:13:12.349Z,1020.81
2022-10-11T09:14:12.497Z,1020.76
2022-10-11T09:15:12.651Z,1020.73
2022-10-11T09:16:12.767Z,1020.75
2022-10-11T09:17:12.888Z,1020.74
2022-10-11T09:18:13.009Z,1020.74
2022-10-11T09:19:13.097Z,1020.77
2022-10-11T09:20:13.229Z,1020.73
2022-10-11T09:21:13.336Z,1020.84
2022-10-11T09:22:13.466Z,1020.78
2022-10-11T09:23:13.569Z,1020.74
2022-10-11T09:24:13.697Z,1020.72
2022-10-11T09:25:13.797Z,1020.81
2022-10-11T09:26:13.945Z,1020.75
2022-10-11T09:27:14.059Z,1020.78
2022-10-11T09:28:14.205Z,1020.74
2022-10-11T09:29:14.245Z,1020.74
2022-10-11T09:30:14.427Z,1020.77
2022-10-11T09:31:14.546Z,1020.66
2022-10-11T09:32:14.639Z,1020.74
2022-10-11T09:33:14.777Z,1020.70
2022-10-11T09:34:14.898Z,1020.74
2022-10-11T09:35:14.995Z,1020.71
2022-10-11T09:36:15.102Z,1020.69
2022-10-11T09:37:15.197Z,1020.70
2022-10-11T09:38:15.367Z,1020.70
2022-10-11T09:39:15.508Z,1020.67
2022-10-11T09:40:15.639Z,1020.65
2022-10-11T09:41:15.740Z,1020.67
2022-10-11T09:42:15.878Z,1020.66
2022-10-11T09:43:15.978Z,1020.65
2022-10-11T09:44:16.125Z,1020.65
2022-10-11T09:45:16.239Z,1020.64
2022-10-11T09:46:16.360Z,1020.66
2022-10-11T09:47:16.577Z,1020.64
2022-10-11T09:48:16.559Z,1020.61
2022-10-11T09:49:16.683Z,1020.68
2022-10-11T09:50:16.787Z,1020.61
2022-10-11T09:51:16.875Z,1020.59
2022-10-11T09:52:17.035Z,1020.61
2022-10-11T09:53:17.117Z,1020.63
2022-10-11T09:54:17.265Z,1020.61
2022-10-11T09:55:19.731Z,1020.62
2022-10-11T09:56:17.475Z,1020.64
2022-10-11T09:57:17.577Z,1020.73
2022-10-11T09:58:17.761Z,1020.71
2022-10-11T09:59:17.861Z,1020.68
2022-10-11T10:00:17.984Z,1020.71
2022-10-11T10:01:18.127Z,1020.78
2022-10-11T10:02:18.201Z,1020.78
2022-10-11T10:03:18.296Z,1020.75
2022-10-11T10:04:18.468Z,1020.80
2022-10-11T10:05:18.554Z,1020.78
2022-10-11T10:06:18.770Z,1020.71
2022-10-11T10:07:18.825Z,1020.79
2022-10-11T10:08:18.938Z,1020.78
2022-10-11T10:09:19.084Z,1020.77
2022-10-11T10:10:19.170Z,1020.74
2022-10-11T10:11:19.268Z,1020.73
2022-10-11T10:12:19.425Z,1020.78
2022-10-11T10:13:19.538Z,1020.75
2022-10-11T10:14:19.675Z,1020.71
2022-10-11T10:15:19.759Z,1020.72
2022-10-11T10:16:19.912Z,1020.80
2022-10-11T10:17:20.021Z,1020.80
2022-10-11T10:18:20.129Z,1020.76
2022-10-11T10:19:20.302Z,1020.75
2022-10-11T10:20:20.398Z,1020.73
2022-10-11T10:21:20.509Z,1020.77
2022-10-11T10:22:20.645Z,1020.72
2022-10-11T10:23:20.755Z,1020.70
2022-10-11T10:24:20.915Z,1020.73
2022-10-11T10:25:21.046Z,1020.80
2022-10-11T10:26:21.155Z,1020.76
2022-10-11T10:27:21.252Z,1020.75
2022-10-11T10:28:21.436Z,1020.74
2022-10-11T10:29:21.578Z,1020.75
2022-10-11T10:30:21.634Z,1020.80
2022-10-11T10:31:21.781Z,1020.76
2022-10-11T10:32:21.880Z,1020.78
2022-10-11T10:33:21.990Z,1020.76
2022-10-11T10:34:22.108Z,1020.79
2022-10-11T10:35:22.281Z,1020.80
2022-10-11T10:36:22.369Z,1020.74
2022-10-11T10:37:22.479Z,1020.76
2022-10-11T10:38:26.377Z,1020.77
2022-10-11T10:39:22.740Z,1020.80
2022-10-11T10:40:22.860Z,1020.73
2022-10-11T10:41:22.963Z,1020.75
2022-10-11T10:42:23.100Z,1020.75
2022-10-11T10:43:23.261Z,1020.73
2022-10-11T10:44:23.361Z,1020.77
2022-10-11T10:45:23.531Z,1020.73
2022-10-11T10:46:23.633Z,1020.74
2022-10-11T10:47:23.739Z,1020.74
2022-10-11T10:48:23.879Z,1020.71
2022-10-11T10:49:48.833Z,1020.74
2022-10-11T10:50:25.161Z,1020.65
2022-10-11T10:51:24.319Z,1020.71
2022-10-11T10:52:24.417Z,1020.65
2022-10-11T10:53:24.571Z,1020.62
2022-10-11T10:54:25.271Z,1020.67
2022-10-11T10:55:24.815Z,1020.69
2022-10-11T10:56:24.920Z,1020.68
2022-10-11T10:57:25.035Z,1020.68
2022-10-11T10:58:25.122Z,1020.69
2022-10-11T10:59:25.309Z,1020.64
2022-10-11T11:00:25.414Z,1020.61
2022-10-11T11:01:25.609Z,1020.66
2022-10-11T11:02:40.228Z,1020.61
2022-10-11T11:03:26.731Z,1020.61
2022-10-11T11:04:25.870Z,1020.62
2022-10-11T11:05:26.031Z,1020.63
2022-10-11T11:06:26.143Z,1020.55
2022-10-11T11:07:26.284Z,1020.49
2022-10-11T11:08:26.363Z,1020.42
2022-10-11T11:09:26.592Z,1020.56
2022-10-11T11:10:26.655Z,1020.50
2022-10-11T11:11:26.794Z,1020.45
2022-10-11T11:12:26.946Z,1020.47
2022-10-11T11:13:27.083Z,1020.52
2022-10-11T11:14:27.234Z,1020.46
2022-10-11T11:15:32.581Z,1020.40
2022-10-11T11:16:28.503Z,1020.41
2022-10-11T11:17:27.664Z,1020.38
2022-10-11T11:18:27.753Z,1020.42
2022-10-11T11:19:27.881Z,1020.33
2022-10-11T11:20:27.984Z,1020.39
2022-10-11T11:21:28.143Z,1020.33
2022-10-11T11:22:32.570Z,1020.35
2022-10-11T11:23:28.464Z,1020.40
2022-10-11T11:24:28.487Z,1020.39
2022-10-11T11:25:28.596Z,1020.34
2022-10-11T11:26:28.738Z,1020.36
2022-10-11T11:27:28.898Z,1020.28
2022-10-11T11:28:29.063Z,1020.27
2022-10-11T11:29:29.116Z,1020.27
2022-10-11T11:30:29.284Z,1020.25
2022-10-11T11:31:29.405Z,1020.25
2022-10-11T11:32:29.506Z,1020.15
2022-10-11T11:33:29.616Z,1020.16
2022-10-11T11:34:29.770Z,1020.16
2022-10-11T11:35:29.857Z,1020.14
2022-10-11T11:36:29.995Z,1020.09
2022-10-11T11:37:30.106Z,1020.15
2022-10-11T11:38:30.197Z,1020.07
2022-10-11T11:39:30.346Z,1020.11
2022-10-11T11:40:30.466Z,1020.16
2022-10-11T11:41:30.596Z,1020.09
2022-10-11T11:42:30.685Z,1020.06
2022-10-11T11:43:30.850Z,1020.00
2022-10-11T11:44:30.959Z,1020.05
2022-10-11T11:45:31.065Z,1020.00
2022-10-11T11:46:31.360Z,1020.03
2022-10-11T11:47:31.792Z,1020.01
2022-10-11T11:48:31.488Z,1020.03
2022-10-11T11:49:31.609Z,1019.98
2022-10-11T11:50:33.783Z,1020.03
2022-10-11T11:51:31.867Z,1020.04
2022-10-11T11:52:31.979Z,1019.92
2022-10-11T11:53:32.087Z,1019.96
2022-10-11T11:54:32.248Z,1020.01
2022-10-11T11:55:32.338Z,1019.95
2022-10-11T11:56:32.447Z,1019.91
2022-10-11T11:57:32.584Z,1019.95
2022-10-11T11:58:32.692Z,1019.97
2022-10-11T11:59:32.866Z,1019.95
2022-10-11T12:00:32.935Z,1019.94
2022-10-11T12:01:33.108Z,1019.85
2022-10-11T12:02:33.212Z,1019.88
2022-10-11T12:03:34.456Z,1019.80
2022-10-11T12:04:33.439Z,1019.81
2022-10-11T12:05:33.590Z,1019.81
2022-10-11T12:06:33.669Z,1019.72
2022-10-11T12:07:33.780Z,1019.66